sensor_id;sensor_type;location;lat;lon;timestamp;temperature;humidity
30308;DHT22;17114;52.314;8.910;2022-09-09T00:01:32;14.80;99.90
30308;DHT22;17114;52.314;8.910;2022-09-09T00:06:45;14.80;99.90
30308;DHT22;17114;52.314;8.910;2022-09-09T00:09:18;14.70;99.90
30308;DHT22;17114;52.314;8.910;2022-09-09T00:11:54;14.60;99.90
30308;DHT22;17114;52.314;8.910;2022-09-09T00:14:57;14.50;99.90
30308;DHT22;17114;52.314;8.910;2022-09-09T00:20:05;14.40;99.90
30308;DHT22;17114;52.314;8.910;2022-09-09T00:22:40;14.30;99.90
30308;DHT22;17114;52.314;8.910;2022-09-09T00:25:19;14.20;99.90
30308;DHT22;17114;52.314;8.910;2022-09-09T00:27:49;14.10;99.90
30308;DHT22;17114;52.314;8.910;2022-09-09T00:30:23;14.10;99.90
30308;DHT22;17114;52.314;8.910;2022-09-09T00:32:55;14.00;99.90
30308;DHT22;17114;52.314;8.910;2022-09-09T00:35:34;13.90;99.90
30308;DHT22;17114;52.314;8.910;2022-09-09T00:38:30;13.90;99.90
30308;DHT22;17114;52.314;8.910;2022-09-09T00:43:40;13.90;99.90
30308;DHT22;17114;52.314;8.910;2022-09-09T00:48:41;13.90;99.90
30308;DHT22;17114;52.314;8.910;2022-09-09T00:51:17;13.90;99.90
30308;DHT22;17114;52.314;8.910;2022-09-09T01:08:01;14.10;99.90
30308;DHT22;17114;52.314;8.910;2022-09-09T01:10:51;14.20;99.90
30308;DHT22;17114;52.314;8.910;2022-09-09T01:13:29;14.30;99.90
30308;DHT22;17114;52.314;8.910;2022-09-09T01:16:03;14.40;99.90
30308;DHT22;17114;52.314;8.910;2022-09-09T01:18:46;14.50;99.90
30308;DHT22;17114;52.314;8.910;2022-09-09T01:21:49;14.60;99.90
30308;DHT22;17114;52.314;8.910;2022-09-09T01:27:02;14.60;99.90
30308;DHT22;17114;52.314;8.910;2022-09-09T01:29:29;14.60;99.90
30308;DHT22;17114;52.314;8.910;2022-09-09T01:32:03;14.60;99.90
30308;DHT22;17114;52.314;8.910;2022-09-09T01:34:48;14.60;99.90
30308;DHT22;17114;52.314;8.910;2022-09-09T01:37:14;14.60;99.90
30308;DHT22;17114;52.314;8.910;2022-09-09T01:39:43;14.60;99.90
30308;DHT22;17114;52.314;8.910;2022-09-09T01:42:14;14.80;99.90
30308;DHT22;17114;52.314;8.910;2022-09-09T01:44:41;14.80;99.90
30308;DHT22;17114;52.314;8.910;2022-09-09T01:47:08;14.80;99.90
30308;DHT22;17114;52.314;8.910;2022-09-09T01:49:35;14.70;99.90
30308;DHT22;17114;52.314;8.910;2022-09-09T01:52:02;14.80;99.90
30308;DHT22;17114;52.314;8.910;2022-09-09T01:54:31;14.70;99.90
30308;DHT22;17114;52.314;8.910;2022-09-09T01:57:23;14.70;99.90
30308;DHT22;17114;52.314;8.910;2022-09-09T02:02:29;14.90;99.90
30308;DHT22;17114;52.314;8.910;2022-09-09T02:10:25;15.00;99.90
30308;DHT22;17114;52.314;8.910;2022-09-09T02:13:07;15.10;99.90
30308;DHT22;17114;52.314;8.910;2022-09-09T02:18:51;15.10;99.90
30308;DHT22;17114;52.314;8.910;2022-09-09T02:21:19;15.20;99.90
30308;DHT22;17114;52.314;8.910;2022-09-09T02:23:48;15.20;99.90
30308;DHT22;17114;52.314;8.910;2022-09-09T02:26:19;15.30;99.90
30308;DHT22;17114;52.314;8.910;2022-09-09T02:28:51;15.30;99.90
30308;DHT22;17114;52.314;8.910;2022-09-09T02:31:22;15.30;99.90
30308;DHT22;17114;52.314;8.910;2022-09-09T02:33:53;15.40;99.90
30308;DHT22;17114;52.314;8.910;2022-09-09T02:36:22;15.40;99.90
30308;DHT22;17114;52.314;8.910;2022-09-09T02:38:50;15.40;99.90
30308;DHT22;17114;52.314;8.910;2022-09-09T02:41:24;15.40;99.90
30308;DHT22;17114;52.314;8.910;2022-09-09T02:43:52;15.50;99.90
30308;DHT22;17114;52.314;8.910;2022-09-09T02:49:06;15.50;99.90
30308;DHT22;17114;52.314;8.910;2022-09-09T02:54:30;15.50;99.90
30308;DHT22;17114;52.314;8.910;2022-09-09T02:57:28;15.50;99.90
30308;DHT22;17114;52.314;8.910;2022-09-09T03:00:00;15.50;99.90
30308;DHT22;17114;52.314;8.910;2022-09-09T03:02:28;15.40;99.90
30308;DHT22;17114;52.314;8.910;2022-09-09T03:04:54;15.40;99.90
30308;DHT22;17114;52.314;8.910;2022-09-09T03:07:21;15.40;99.90
30308;DHT22;17114;52.314;8.910;2022-09-09T03:09:48;15.40;99.90
30308;DHT22;17114;52.314;8.910;2022-09-09T03:12:15;15.40;99.90
30308;DHT22;17114;52.314;8.910;2022-09-09T03:14:43;15.40;99.90
30308;DHT22;17114;52.314;8.910;2022-09-09T03:17:12;15.40;99.90
30308;DHT22;17114;52.314;8.910;2022-09-09T03:19:39;15.40;99.90
30308;DHT22;17114;52.314;8.910;2022-09-09T03:22:06;15.40;99.90
30308;DHT22;17114;52.314;8.910;2022-09-09T03:24:33;15.30;99.90
30308;DHT22;17114;52.314;8.910;2022-09-09T03:27:00;15.30;99.90
30308;DHT22;17114;52.314;8.910;2022-09-09T03:29:27;15.30;99.90
30308;DHT22;17114;52.314;8.910;2022-09-09T03:31:54;15.30;99.90
30308;DHT22;17114;52.314;8.910;2022-09-09T03:34:21;15.30;99.90
30308;DHT22;17114;52.314;8.910;2022-09-09T03:36:47;15.30;99.90
30308;DHT22;17114;52.314;8.910;2022-09-09T03:39:15;15.30;99.90
30308;DHT22;17114;52.314;8.910;2022-09-09T03:41:42;15.30;99.90
30308;DHT22;17114;52.314;8.910;2022-09-09T03:44:11;15.20;99.90
30308;DHT22;17114;52.314;8.910;2022-09-09T03:46:38;15.30;99.90
30308;DHT22;17114;52.314;8.910;2022-09-09T03:49:05;15.20;99.90
30308;DHT22;17114;52.314;8.910;2022-09-09T03:51:32;15.20;99.90
30308;DHT22;17114;52.314;8.910;2022-09-09T03:54:03;15.20;99.90
30308;DHT22;17114;52.314;8.910;2022-09-09T03:56:31;15.20;99.90
30308;DHT22;17114;52.314;8.910;2022-09-09T03:58:58;15.20;99.90
30308;DHT22;17114;52.314;8.910;2022-09-09T04:01:25;15.20;99.90
30308;DHT22;17114;52.314;8.910;2022-09-09T04:03:52;15.10;99.90
30308;DHT22;17114;52.314;8.910;2022-09-09T04:06:19;15.10;99.90
30308;DHT22;17114;52.314;8.910;2022-09-09T04:08:47;15.10;99.90
30308;DHT22;17114;52.314;8.910;2022-09-09T04:11:15;15.10;99.90
30308;DHT22;17114;52.314;8.910;2022-09-09T04:13:43;15.00;99.90
30308;DHT22;17114;52.314;8.910;2022-09-09T04:16:11;15.00;99.90
30308;DHT22;17114;52.314;8.910;2022-09-09T04:18:40;15.00;99.90
30308;DHT22;17114;52.314;8.910;2022-09-09T04:21:08;14.90;99.90
30308;DHT22;17114;52.314;8.910;2022-09-09T04:23:36;14.90;99.90
30308;DHT22;17114;52.314;8.910;2022-09-09T04:26:03;14.90;99.90
30308;DHT22;17114;52.314;8.910;2022-09-09T04:28:32;14.90;99.90
30308;DHT22;17114;52.314;8.910;2022-09-09T04:31:08;14.90;99.90
30308;DHT22;17114;52.314;8.910;2022-09-09T04:33:35;14.90;99.90
30308;DHT22;17114;52.314;8.910;2022-09-09T04:36:06;14.90;99.90
30308;DHT22;17114;52.314;8.910;2022-09-09T04:38:33;15.00;99.90
30308;DHT22;17114;52.314;8.910;2022-09-09T04:41:00;15.00;99.90
30308;DHT22;17114;52.314;8.910;2022-09-09T04:43:28;15.00;99.90
30308;DHT22;17114;52.314;8.910;2022-09-09T04:45:54;15.00;99.90
30308;DHT22;17114;52.314;8.910;2022-09-09T04:48:22;15.00;99.90
30308;DHT22;17114;52.314;8.910;2022-09-09T04:51:08;15.00;99.90
30308;DHT22;17114;52.314;8.910;2022-09-09T04:53:36;15.00;99.90
30308;DHT22;17114;52.314;8.910;2022-09-09T04:56:09;15.00;99.90
30308;DHT22;17114;52.314;8.910;2022-09-09T04:58:37;15.00;99.90
30308;DHT22;17114;52.314;8.910;2022-09-09T05:01:09;14.90;99.90
30308;DHT22;17114;52.314;8.910;2022-09-09T05:03:39;14.90;99.90
30308;DHT22;17114;52.314;8.910;2022-09-09T05:06:24;14.90;99.90
30308;DHT22;17114;52.314;8.910;2022-09-09T05:08:51;14.90;99.90
30308;DHT22;17114;52.314;8.910;2022-09-09T05:11:20;14.90;99.90
30308;DHT22;17114;52.314;8.910;2022-09-09T05:13:49;14.90;99.90
30308;DHT22;17114;52.314;8.910;2022-09-09T05:16:20;14.90;99.90
30308;DHT22;17114;52.314;8.910;2022-09-09T05:18:48;14.90;99.90
30308;DHT22;17114;52.314;8.910;2022-09-09T05:21:16;14.90;99.90
30308;DHT22;17114;52.314;8.910;2022-09-09T05:23:45;14.90;99.90
30308;DHT22;17114;52.314;8.910;2022-09-09T05:26:15;15.00;99.90
30308;DHT22;17114;52.314;8.910;2022-09-09T05:28:43;15.00;99.90
30308;DHT22;17114;52.314;8.910;2022-09-09T05:31:11;15.10;99.90
30308;DHT22;17114;52.314;8.910;2022-09-09T05:33:41;15.20;99.90
30308;DHT22;17114;52.314;8.910;2022-09-09T05:36:12;15.20;99.90
30308;DHT22;17114;52.314;8.910;2022-09-09T05:38:43;15.20;99.90
30308;DHT22;17114;52.314;8.910;2022-09-09T05:41:11;15.20;99.90
30308;DHT22;17114;52.314;8.910;2022-09-09T05:43:38;15.20;99.90
30308;DHT22;17114;52.314;8.910;2022-09-09T05:46:17;15.30;99.90
30308;DHT22;17114;52.314;8.910;2022-09-09T05:48:45;15.30;99.90
30308;DHT22;17114;52.314;8.910;2022-09-09T05:51:15;15.30;99.90
30308;DHT22;17114;52.314;8.910;2022-09-09T05:53:43;15.30;99.90
30308;DHT22;17114;52.314;8.910;2022-09-09T05:56:16;15.40;99.90
30308;DHT22;17114;52.314;8.910;2022-09-09T05:58:44;15.40;99.90
30308;DHT22;17114;52.314;8.910;2022-09-09T06:01:16;15.40;99.90
30308;DHT22;17114;52.314;8.910;2022-09-09T06:03:45;15.40;99.90
30308;DHT22;17114;52.314;8.910;2022-09-09T06:06:17;15.50;99.90
30308;DHT22;17114;52.314;8.910;2022-09-09T06:08:44;15.40;99.90
30308;DHT22;17114;52.314;8.910;2022-09-09T06:11:23;15.50;99.90
30308;DHT22;17114;52.314;8.910;2022-09-09T06:13:51;15.50;99.90
30308;DHT22;17114;52.314;8.910;2022-09-09T06:16:22;15.60;99.90
30308;DHT22;17114;52.314;8.910;2022-09-09T06:18:56;15.70;99.90
30308;DHT22;17114;52.314;8.910;2022-09-09T06:21:29;15.70;99.90
30308;DHT22;17114;52.314;8.910;2022-09-09T06:23:59;15.80;99.90
30308;DHT22;17114;52.314;8.910;2022-09-09T06:26:31;15.90;99.90
30308;DHT22;17114;52.314;8.910;2022-09-09T06:29:00;16.00;99.90
30308;DHT22;17114;52.314;8.910;2022-09-09T06:31:30;16.20;99.90
30308;DHT22;17114;52.314;8.910;2022-09-09T06:33:58;16.40;99.90
30308;DHT22;17114;52.314;8.910;2022-09-09T06:36:28;16.70;99.90
30308;DHT22;17114;52.314;8.910;2022-09-09T06:38:55;17.20;99.90
30308;DHT22;17114;52.314;8.910;2022-09-09T06:41:25;17.40;99.90
30308;DHT22;17114;52.314;8.910;2022-09-09T06:43:55;17.70;99.90
30308;DHT22;17114;52.314;8.910;2022-09-09T06:46:24;17.80;99.90
30308;DHT22;17114;52.314;8.910;2022-09-09T06:48:57;17.70;99.90
30308;DHT22;17114;52.314;8.910;2022-09-09T06:51:31;17.60;99.90
30308;DHT22;17114;52.314;8.910;2022-09-09T06:54:00;17.50;99.90
30308;DHT22;17114;52.314;8.910;2022-09-09T06:56:36;17.60;99.90
30308;DHT22;17114;52.314;8.910;2022-09-09T06:59:05;18.10;99.90
30308;DHT22;17114;52.314;8.910;2022-09-09T07:01:35;18.90;99.90
30308;DHT22;17114;52.314;8.910;2022-09-09T07:04:05;19.40;99.90
30308;DHT22;17114;52.314;8.910;2022-09-09T07:06:37;19.80;99.90
30308;DHT22;17114;52.314;8.910;2022-09-09T07:09:06;20.40;99.90
30308;DHT22;17114;52.314;8.910;2022-09-09T07:11:45;21.10;99.90
30308;DHT22;17114;52.314;8.910;2022-09-09T07:14:12;21.60;99.90
30308;DHT22;17114;52.314;8.910;2022-09-09T07:16:41;21.90;99.90
30308;DHT22;17114;52.314;8.910;2022-09-09T07:19:09;22.30;99.90
30308;DHT22;17114;52.314;8.910;2022-09-09T07:21:37;22.30;99.90
30308;DHT22;17114;52.314;8.910;2022-09-09T07:24:06;22.60;99.90
30308;DHT22;17114;52.314;8.910;2022-09-09T07:26:38;22.40;99.90
30308;DHT22;17114;52.314;8.910;2022-09-09T07:29:06;22.10;99.90
30308;DHT22;17114;52.314;8.910;2022-09-09T07:31:36;21.90;99.90
30308;DHT22;17114;52.314;8.910;2022-09-09T07:34:04;21.80;99.90
30308;DHT22;17114;52.314;8.910;2022-09-09T07:36:34;21.10;99.90
30308;DHT22;17114;52.314;8.910;2022-09-09T07:39:07;20.60;99.90
30308;DHT22;17114;52.314;8.910;2022-09-09T07:41:36;20.30;99.90
30308;DHT22;17114;52.314;8.910;2022-09-09T07:44:06;20.10;99.90
30308;DHT22;17114;52.314;8.910;2022-09-09T07:46:34;19.80;99.90
30308;DHT22;17114;52.314;8.910;2022-09-09T07:49:01;19.80;99.90
30308;DHT22;17114;52.314;8.910;2022-09-09T07:51:33;19.80;99.90
30308;DHT22;17114;52.314;8.910;2022-09-09T07:54:03;19.80;99.90
30308;DHT22;17114;52.314;8.910;2022-09-09T07:56:31;19.80;99.90
30308;DHT22;17114;52.314;8.910;2022-09-09T07:58:59;19.90;99.90
30308;DHT22;17114;52.314;8.910;2022-09-09T08:01:30;19.80;99.90
30308;DHT22;17114;52.314;8.910;2022-09-09T08:04:03;19.70;99.90
30308;DHT22;17114;52.314;8.910;2022-09-09T08:06:34;19.70;99.90
30308;DHT22;17114;52.314;8.910;2022-09-09T08:09:01;19.60;99.90
30308;DHT22;17114;52.314;8.910;2022-09-09T08:11:30;19.60;99.90
30308;DHT22;17114;52.314;8.910;2022-09-09T08:14:05;19.60;99.90
30308;DHT22;17114;52.314;8.910;2022-09-09T08:16:37;19.60;99.90
30308;DHT22;17114;52.314;8.910;2022-09-09T08:19:05;19.80;99.90
30308;DHT22;17114;52.314;8.910;2022-09-09T08:21:36;19.90;99.90
30308;DHT22;17114;52.314;8.910;2022-09-09T08:24:05;20.00;99.90
30308;DHT22;17114;52.314;8.910;2022-09-09T08:26:37;20.10;99.90
30308;DHT22;17114;52.314;8.910;2022-09-09T08:29:06;20.00;99.90
30308;DHT22;17114;52.314;8.910;2022-09-09T08:31:36;20.10;99.90
30308;DHT22;17114;52.314;8.910;2022-09-09T08:34:04;19.80;99.90
30308;DHT22;17114;52.314;8.910;2022-09-09T08:36:38;19.60;99.90
30308;DHT22;17114;52.314;8.910;2022-09-09T08:39:07;19.60;99.90
30308;DHT22;17114;52.314;8.910;2022-09-09T08:47:39;19.70;99.90
30308;DHT22;17114;52.314;8.910;2022-09-09T08:50:29;19.60;99.90
30308;DHT22;17114;52.314;8.910;2022-09-09T08:55:55;19.70;99.90
30308;DHT22;17114;52.314;8.910;2022-09-09T08:58:31;19.70;99.90
30308;DHT22;17114;52.314;8.910;2022-09-09T09:01:22;19.60;99.90
30308;DHT22;17114;52.314;8.910;2022-09-09T09:06:56;19.70;99.90
30308;DHT22;17114;52.314;8.910;2022-09-09T09:12:21;19.90;99.90
30308;DHT22;17114;52.314;8.910;2022-09-09T09:14:49;20.10;99.90
30308;DHT22;17114;52.314;8.910;2022-09-09T09:17:23;20.20;99.90
30308;DHT22;17114;52.314;8.910;2022-09-09T09:19:52;20.30;99.90
30308;DHT22;17114;52.314;8.910;2022-09-09T09:22:42;20.50;99.90
30308;DHT22;17114;52.314;8.910;2022-09-09T09:25:20;20.50;99.90
30308;DHT22;17114;52.314;8.910;2022-09-09T09:30:37;20.60;99.90
30308;DHT22;17114;52.314;8.910;2022-09-09T09:33:13;20.70;99.90
30308;DHT22;17114;52.314;8.910;2022-09-09T09:35:43;20.80;99.90
30308;DHT22;17114;52.314;8.910;2022-09-09T09:38:22;20.90;99.90
30308;DHT22;17114;52.314;8.910;2022-09-09T09:41:32;20.90;99.90
30308;DHT22;17114;52.314;8.910;2022-09-09T09:44:02;21.10;99.90
30308;DHT22;17114;52.314;8.910;2022-09-09T09:46:30;21.30;99.90
30308;DHT22;17114;52.314;8.910;2022-09-09T09:49:08;21.60;99.90
30308;DHT22;17114;52.314;8.910;2022-09-09T09:51:36;21.60;99.90
30308;DHT22;17114;52.314;8.910;2022-09-09T09:56:41;21.30;99.90
30308;DHT22;17114;52.314;8.910;2022-09-09T09:59:36;21.20;99.90
30308;DHT22;17114;52.314;8.910;2022-09-09T10:02:24;21.00;99.90
30308;DHT22;17114;52.314;8.910;2022-09-09T10:07:39;20.50;99.90
30308;DHT22;17114;52.314;8.910;2022-09-09T10:10:38;20.30;99.90
30308;DHT22;17114;52.314;8.910;2022-09-09T10:19:06;21.00;99.90
30308;DHT22;17114;52.314;8.910;2022-09-09T10:35:24;21.90;99.90
30308;DHT22;17114;52.314;8.910;2022-09-09T10:38:20;22.40;99.90
30308;DHT22;17114;52.314;8.910;2022-09-09T10:43:39;22.50;99.90
30308;DHT22;17114;52.314;8.910;2022-09-09T10:46:15;22.20;99.90
30308;DHT22;17114;52.314;8.910;2022-09-09T10:49:07;21.90;99.90
30308;DHT22;17114;52.314;8.910;2022-09-09T10:57:39;21.40;99.90
30308;DHT22;17114;52.314;8.910;2022-09-09T11:00:17;21.10;99.90
30308;DHT22;17114;52.314;8.910;2022-09-09T11:02:50;20.70;99.90
30308;DHT22;17114;52.314;8.910;2022-09-09T11:05:28;20.40;99.90
30308;DHT22;17114;52.314;8.910;2022-09-09T11:08:17;20.30;99.90
30308;DHT22;17114;52.314;8.910;2022-09-09T11:11:21;20.20;99.90
30308;DHT22;17114;52.314;8.910;2022-09-09T11:16:24;20.10;99.90
30308;DHT22;17114;52.314;8.910;2022-09-09T11:18:58;20.20;99.90
30308;DHT22;17114;52.314;8.910;2022-09-09T11:21:38;20.30;99.90
30308;DHT22;17114;52.314;8.910;2022-09-09T11:24:31;20.60;99.90
30308;DHT22;17114;52.314;8.910;2022-09-09T11:27:15;20.90;99.90
30308;DHT22;17114;52.314;8.910;2022-09-09T11:38:50;23.40;99.90
30308;DHT22;17114;52.314;8.910;2022-09-09T11:41:20;23.90;99.90
30308;DHT22;17114;52.314;8.910;2022-09-09T11:43:51;24.00;99.90
30308;DHT22;17114;52.314;8.910;2022-09-09T11:46:21;24.70;99.90
30308;DHT22;17114;52.314;8.910;2022-09-09T11:49:00;25.10;99.90
30308;DHT22;17114;52.314;8.910;2022-09-09T11:51:31;25.20;99.90
30308;DHT22;17114;52.314;8.910;2022-09-09T11:54:31;25.00;99.90
30308;DHT22;17114;52.314;8.910;2022-09-09T11:56:59;24.80;99.90
30308;DHT22;17114;52.314;8.910;2022-09-09T11:59:27;24.90;99.90
30308;DHT22;17114;52.314;8.910;2022-09-09T12:09:47;25.30;99.90
30308;DHT22;17114;52.314;8.910;2022-09-09T12:12:21;24.90;99.90
30308;DHT22;17114;52.314;8.910;2022-09-09T12:17:41;23.80;99.90
30308;DHT22;17114;52.314;8.910;2022-09-09T12:20:31;24.00;99.90
30308;DHT22;17114;52.314;8.910;2022-09-09T12:23:15;24.40;99.90
30308;DHT22;17114;52.314;8.910;2022-09-09T12:28:43;24.00;99.90
30308;DHT22;17114;52.314;8.910;2022-09-09T12:33:46;23.70;99.90
30308;DHT22;17114;52.314;8.910;2022-09-09T12:36:18;23.30;99.90
30308;DHT22;17114;52.314;8.910;2022-09-09T12:38:46;23.30;99.90
30308;DHT22;17114;52.314;8.910;2022-09-09T12:41:25;23.60;99.90
30308;DHT22;17114;52.314;8.910;2022-09-09T12:44:04;24.00;99.90
30308;DHT22;17114;52.314;8.910;2022-09-09T12:46:41;23.70;99.90
30308;DHT22;17114;52.314;8.910;2022-09-09T12:49:31;23.60;99.90
30308;DHT22;17114;52.314;8.910;2022-09-09T12:52:07;23.20;99.90
30308;DHT22;17114;52.314;8.910;2022-09-09T12:54:37;23.20;99.90
30308;DHT22;17114;52.314;8.910;2022-09-09T12:57:05;23.20;99.90
30308;DHT22;17114;52.314;8.910;2022-09-09T12:59:38;23.10;99.90
30308;DHT22;17114;52.314;8.910;2022-09-09T13:02:18;23.10;99.90
30308;DHT22;17114;52.314;8.910;2022-09-09T13:04:46;23.60;99.90
30308;DHT22;17114;52.314;8.910;2022-09-09T13:07:14;23.80;99.90
30308;DHT22;17114;52.314;8.910;2022-09-09T13:09:44;24.20;99.90
30308;DHT22;17114;52.314;8.910;2022-09-09T13:12:19;24.00;99.90
30308;DHT22;17114;52.314;8.910;2022-09-09T13:14:49;23.90;99.90
30308;DHT22;17114;52.314;8.910;2022-09-09T13:17:25;24.00;99.90
30308;DHT22;17114;52.314;8.910;2022-09-09T13:19:55;24.00;99.90
30308;DHT22;17114;52.314;8.910;2022-09-09T13:22:30;23.80;99.90
30308;DHT22;17114;52.314;8.910;2022-09-09T13:25:21;23.40;99.90
30308;DHT22;17114;52.314;8.910;2022-09-09T13:28:01;23.00;99.90
30308;DHT22;17114;52.314;8.910;2022-09-09T13:30:34;22.70;99.90
30308;DHT22;17114;52.314;8.910;2022-09-09T13:34:00;22.30;99.90
30308;DHT22;17114;52.314;8.910;2022-09-09T13:36:31;21.90;99.90
30308;DHT22;17114;52.314;8.910;2022-09-09T13:39:00;21.60;99.90
30308;DHT22;17114;52.314;8.910;2022-09-09T13:41:36;21.50;99.90
30308;DHT22;17114;52.314;8.910;2022-09-09T13:44:04;21.40;99.90
30308;DHT22;17114;52.314;8.910;2022-09-09T13:46:38;21.30;99.90
30308;DHT22;17114;52.314;8.910;2022-09-09T13:51:40;21.30;99.90
30308;DHT22;17114;52.314;8.910;2022-09-09T13:54:10;21.20;99.90
30308;DHT22;17114;52.314;8.910;2022-09-09T13:56:38;21.20;99.90
30308;DHT22;17114;52.314;8.910;2022-09-09T13:59:13;21.10;99.90
30308;DHT22;17114;52.314;8.910;2022-09-09T14:01:42;21.10;99.90
30308;DHT22;17114;52.314;8.910;2022-09-09T14:04:10;21.10;99.90
30308;DHT22;17114;52.314;8.910;2022-09-09T14:06:38;21.10;99.90
30308;DHT22;17114;52.314;8.910;2022-09-09T14:09:09;21.20;99.90
30308;DHT22;17114;52.314;8.910;2022-09-09T14:11:36;21.30;99.90
30308;DHT22;17114;52.314;8.910;2022-09-09T14:14:03;21.30;99.90
30308;DHT22;17114;52.314;8.910;2022-09-09T14:16:30;21.40;99.90
30308;DHT22;17114;52.314;8.910;2022-09-09T14:18:57;21.40;99.90
30308;DHT22;17114;52.314;8.910;2022-09-09T14:21:25;21.30;99.90
30308;DHT22;17114;52.314;8.910;2022-09-09T14:23:52;20.70;99.90
30308;DHT22;17114;52.314;8.910;2022-09-09T14:26:20;20.10;99.90
30308;DHT22;17114;52.314;8.910;2022-09-09T14:28:48;19.80;99.90
30308;DHT22;17114;52.314;8.910;2022-09-09T14:31:21;19.70;99.90
30308;DHT22;17114;52.314;8.910;2022-09-09T14:33:48;19.80;99.90
30308;DHT22;17114;52.314;8.910;2022-09-09T14:36:15;20.00;99.90
30308;DHT22;17114;52.314;8.910;2022-09-09T14:38:42;20.40;99.90
30308;DHT22;17114;52.314;8.910;2022-09-09T14:41:11;20.70;99.90
30308;DHT22;17114;52.314;8.910;2022-09-09T14:43:39;20.90;99.90
30308;DHT22;17114;52.314;8.910;2022-09-09T14:46:07;21.00;99.90
30308;DHT22;17114;52.314;8.910;2022-09-09T14:48:35;21.20;99.90
30308;DHT22;17114;52.314;8.910;2022-09-09T14:51:13;21.20;99.90
30308;DHT22;17114;52.314;8.910;2022-09-09T14:53:42;21.20;99.90
30308;DHT22;17114;52.314;8.910;2022-09-09T14:56:15;21.20;99.90
30308;DHT22;17114;52.314;8.910;2022-09-09T14:58:42;21.20;99.90
30308;DHT22;17114;52.314;8.910;2022-09-09T15:01:18;21.30;99.90
30308;DHT22;17114;52.314;8.910;2022-09-09T15:03:51;21.30;99.90
30308;DHT22;17114;52.314;8.910;2022-09-09T15:06:19;21.20;99.90
30308;DHT22;17114;52.314;8.910;2022-09-09T15:08:47;21.30;99.90
30308;DHT22;17114;52.314;8.910;2022-09-09T15:11:14;21.30;99.90
30308;DHT22;17114;52.314;8.910;2022-09-09T15:13:42;21.40;99.90
30308;DHT22;17114;52.314;8.910;2022-09-09T15:16:15;21.40;99.90
30308;DHT22;17114;52.314;8.910;2022-09-09T15:18:44;21.40;99.90
30308;DHT22;17114;52.314;8.910;2022-09-09T15:21:22;21.30;99.90
30308;DHT22;17114;52.314;8.910;2022-09-09T15:23:50;21.20;99.90
30308;DHT22;17114;52.314;8.910;2022-09-09T15:26:18;21.00;99.90
30308;DHT22;17114;52.314;8.910;2022-09-09T15:28:49;20.80;99.90
30308;DHT22;17114;52.314;8.910;2022-09-09T15:31:22;20.70;99.90
30308;DHT22;17114;52.314;8.910;2022-09-09T15:33:58;20.50;99.90
30308;DHT22;17114;52.314;8.910;2022-09-09T15:38:59;20.10;99.90
30308;DHT22;17114;52.314;8.910;2022-09-09T15:41:27;20.00;99.90
30308;DHT22;17114;52.314;8.910;2022-09-09T15:43:55;19.90;99.90
30308;DHT22;17114;52.314;8.910;2022-09-09T15:46:30;19.80;99.90
30308;DHT22;17114;52.314;8.910;2022-09-09T15:51:43;19.60;99.90
30308;DHT22;17114;52.314;8.910;2022-09-09T15:54:15;19.60;99.90
30308;DHT22;17114;52.314;8.910;2022-09-09T15:56:57;19.50;99.90
30308;DHT22;17114;52.314;8.910;2022-09-09T15:59:26;19.50;99.90
30308;DHT22;17114;52.314;8.910;2022-09-09T16:01:54;19.50;99.90
30308;DHT22;17114;52.314;8.910;2022-09-09T16:04:23;19.50;99.90
30308;DHT22;17114;52.314;8.910;2022-09-09T16:06:52;19.40;99.90
30308;DHT22;17114;52.314;8.910;2022-09-09T16:09:19;19.40;99.90
30308;DHT22;17114;52.314;8.910;2022-09-09T16:11:46;19.50;99.90
30308;DHT22;17114;52.314;8.910;2022-09-09T16:14:15;19.50;99.90
30308;DHT22;17114;52.314;8.910;2022-09-09T16:16:42;19.60;99.90
30308;DHT22;17114;52.314;8.910;2022-09-09T16:19:11;19.70;99.90
30308;DHT22;17114;52.314;8.910;2022-09-09T16:21:44;19.90;99.90
30308;DHT22;17114;52.314;8.910;2022-09-09T16:24:16;20.00;99.90
30308;DHT22;17114;52.314;8.910;2022-09-09T16:26:46;20.10;99.90
30308;DHT22;17114;52.314;8.910;2022-09-09T16:29:15;20.30;99.90
30308;DHT22;17114;52.314;8.910;2022-09-09T16:31:42;20.30;99.90
30308;DHT22;17114;52.314;8.910;2022-09-09T16:34:10;20.40;99.90
30308;DHT22;17114;52.314;8.910;2022-09-09T16:36:38;20.30;99.90
30308;DHT22;17114;52.314;8.910;2022-09-09T16:39:09;20.30;99.90
30308;DHT22;17114;52.314;8.910;2022-09-09T16:41:37;20.40;99.90
30308;DHT22;17114;52.314;8.910;2022-09-09T16:44:06;20.40;99.90
30308;DHT22;17114;52.314;8.910;2022-09-09T16:46:39;20.30;99.90
30308;DHT22;17114;52.314;8.910;2022-09-09T16:49:09;20.20;99.90
30308;DHT22;17114;52.314;8.910;2022-09-09T16:51:48;20.10;99.90
30308;DHT22;17114;52.314;8.910;2022-09-09T16:54:16;20.10;99.90
30308;DHT22;17114;52.314;8.910;2022-09-09T16:56:45;20.00;99.90
30308;DHT22;17114;52.314;8.910;2022-09-09T16:59:15;19.90;99.90
30308;DHT22;17114;52.314;8.910;2022-09-09T17:01:44;19.80;99.90
30308;DHT22;17114;52.314;8.910;2022-09-09T17:04:13;19.70;99.90
30308;DHT22;17114;52.314;8.910;2022-09-09T17:06:49;19.70;99.90
30308;DHT22;17114;52.314;8.910;2022-09-09T17:09:17;19.60;99.90
30308;DHT22;17114;52.314;8.910;2022-09-09T17:11:45;19.50;99.90
30308;DHT22;17114;52.314;8.910;2022-09-09T17:14:16;19.50;99.90
30308;DHT22;17114;52.314;8.910;2022-09-09T17:16:44;19.40;99.90
30308;DHT22;17114;52.314;8.910;2022-09-09T17:19:14;19.30;99.90
30308;DHT22;17114;52.314;8.910;2022-09-09T17:21:41;19.40;99.90
30308;DHT22;17114;52.314;8.910;2022-09-09T17:24:29;19.20;99.90
30308;DHT22;17114;52.314;8.910;2022-09-09T17:26:56;19.20;99.90
30308;DHT22;17114;52.314;8.910;2022-09-09T17:29:25;19.10;99.90
30308;DHT22;17114;52.314;8.910;2022-09-09T17:31:53;19.10;99.90
30308;DHT22;17114;52.314;8.910;2022-09-09T17:34:21;19.00;99.90
30308;DHT22;17114;52.314;8.910;2022-09-09T17:36:48;18.80;99.90
30308;DHT22;17114;52.314;8.910;2022-09-09T17:39:15;18.30;99.90
30308;DHT22;17114;52.314;8.910;2022-09-09T17:41:42;17.80;99.90
30308;DHT22;17114;52.314;8.910;2022-09-09T17:44:09;17.40;99.90
30308;DHT22;17114;52.314;8.910;2022-09-09T17:46:41;17.20;99.90
30308;DHT22;17114;52.314;8.910;2022-09-09T17:49:11;17.10;99.90
30308;DHT22;17114;52.314;8.910;2022-09-09T17:51:42;17.00;99.90
30308;DHT22;17114;52.314;8.910;2022-09-09T17:54:11;17.00;99.90
30308;DHT22;17114;52.314;8.910;2022-09-09T17:56:39;16.90;99.90
30308;DHT22;17114;52.314;8.910;2022-09-09T17:59:09;16.90;99.90
30308;DHT22;17114;52.314;8.910;2022-09-09T18:01:39;16.90;99.90
30308;DHT22;17114;52.314;8.910;2022-09-09T18:04:08;16.90;99.90
30308;DHT22;17114;52.314;8.910;2022-09-09T18:06:40;16.90;99.90
30308;DHT22;17114;52.314;8.910;2022-09-09T18:09:10;17.00;99.90
30308;DHT22;17114;52.314;8.910;2022-09-09T18:11:42;16.80;99.90